Haverhill, IA (50120)

7:45 PM CDT on October 24, 2014 (GMT -0500)
Marshalltown Municipal | Change Station
CLOSE
Current Station
Airport
Location: Marshalltown,
Elevation: 971 ft
Nearby Weather Stations

Elev 971 ft 42.11 °N, 92.92 °W | Updated 17 minutes ago

Partly Cloudy
Partly Cloudy
58 °F
Feels Like 58 °F
N
7
Wind Variable Wind from South

Today
High -- | Low -- °F
--% Chance of Precip.
Yesterday
High -- | Low -- °F
Precip. -- in
7:34 AM 6:16 PM
New Moon, 1% visible
Pressure 29.92 in
Visibility 2.5 miles
Clouds Clear
Dew Point 57 °F
Humidity 97%
Rainfall 0.00 in
Snow Depth Not available.
UV 0 out of 12
Pollen 2.20 out of 12
Air Quality Not available.
Flu Activity Sporadic
SPECI KMIW 250028Z AUTO 19006KT 2 1/2SM BR CLR 14/14 A2992 RMK AO2 T01440139

More Conditions Fewer Conditions

Pressure 29.92 in
Visibility 2.5 miles
Clouds Clear
Dew Point 57 °F
Humidity 97%
Rainfall 0.00 in
Snow Depth Not available.
UV 0 out of 12
Pollen 2.20 out of 12
Air Quality Not available.
Flu Activity Sporadic
SPECI KMIW 250028Z AUTO 19006KT 2 1/2SM BR CLR 14/14 A2992 RMK AO2 T01440139

More Conditions Fewer Conditions

10-Day Weather Forecast

Almanac

Astronomy

Oct. 24, 2014 Rise Set
Actual Time 7:34 AM CDT 6:16 PM CDT
Civil Twilight 7:06 AM CDT 6:45 PM CDT
Nautical Twilight 6:33 AM CDT 7:17 PM CDT
Astronomical Twilight 6:01 AM CDT 7:50 PM CDT
Moon 8:14 AM CDT (10/24) 6:56 PM CDT (10/24)
Length of Visible Light 11h 38m
Length of Day
10h 41m
Tomorrow will be 2m 36s shorter.
New Moon, 1% of the Moon is Illuminated
Today
New Moon
Oct 30
First Quarter
Nov 6
Full
Nov 14
Last Quarter
Nov 22
New

Today's Extremes

State Highs State Lows

Community

WunderPhotos

Upload Photos

1,764,735 photos uploaded!

WunderBlogs® & News

Nearby

Snow Depth

Station Depth Elevation
No new snow has been reported.

Earthquake Activity

City Distance Mag. Time & Date
No recent earthquake activity has been reported nearby.
Minimum magnitude displayed is 2.5.

Coastal Water Temperatures

Place Temperature
No Stations Reporting

Nearby Weather Stations